sensor_id;sensor_type;location;lat;lon;timestamp;P1;durP1;ratioP1;P2;durP2;ratioP2
66607;SDS011;53462;39.616;8.824;2023-04-25T00:01:32;6.60;;;1.10;;
66607;SDS011;53462;39.616;8.824;2023-04-25T00:04:01;3.55;;;1.08;;
66607;SDS011;53462;39.616;8.824;2023-04-25T00:06:28;6.22;;;1.48;;
66607;SDS011;53462;39.616;8.824;2023-04-25T00:08:55;9.23;;;1.23;;
66607;SDS011;53462;39.616;8.824;2023-04-25T00:11:22;5.60;;;1.60;;
66607;SDS011;53462;39.616;8.824;2023-04-25T00:13:48;3.72;;;1.20;;
66607;SDS011;53462;39.616;8.824;2023-04-25T00:16:15;5.57;;;1.45;;
66607;SDS011;53462;39.616;8.824;2023-04-25T00:18:42;4.82;;;1.23;;
66607;SDS011;53462;39.616;8.824;2023-04-25T00:21:08;5.65;;;1.20;;
66607;SDS011;53462;39.616;8.824;2023-04-25T00:23:34;5.40;;;1.60;;
66607;SDS011;53462;39.616;8.824;2023-04-25T00:26:01;3.90;;;1.10;;
66607;SDS011;53462;39.616;8.824;2023-04-25T00:28:27;4.97;;;1.25;;
66607;SDS011;53462;39.616;8.824;2023-04-25T00:30:53;2.78;;;1.10;;
66607;SDS011;53462;39.616;8.824;2023-04-25T00:33:19;5.80;;;1.10;;
66607;SDS011;53462;39.616;8.824;2023-04-25T00:35:46;8.60;;;1.30;;
66607;SDS011;53462;39.616;8.824;2023-04-25T00:38:12;9.40;;;1.88;;
66607;SDS011;53462;39.616;8.824;2023-04-25T00:40:38;7.63;;;1.45;;
66607;SDS011;53462;39.616;8.824;2023-04-25T00:43:04;7.97;;;1.45;;
66607;SDS011;53462;39.616;8.824;2023-04-25T00:45:30;6.15;;;1.35;;
66607;SDS011;53462;39.616;8.824;2023-04-25T00:47:56;6.25;;;1.00;;
66607;SDS011;53462;39.616;8.824;2023-04-25T00:50:22;4.07;;;1.15;;
66607;SDS011;53462;39.616;8.824;2023-04-25T00:52:49;3.05;;;1.20;;
66607;SDS011;53462;39.616;8.824;2023-04-25T00:55:16;8.48;;;1.65;;
66607;SDS011;53462;39.616;8.824;2023-04-25T00:57:42;8.10;;;1.67;;
66607;SDS011;53462;39.616;8.824;2023-04-25T01:00:08;7.05;;;1.80;;
66607;SDS011;53462;39.616;8.824;2023-04-25T01:02:36;6.30;;;1.63;;
66607;SDS011;53462;39.616;8.824;2023-04-25T01:05:03;4.47;;;1.55;;
66607;SDS011;53462;39.616;8.824;2023-04-25T01:07:29;6.20;;;1.13;;
66607;SDS011;53462;39.616;8.824;2023-04-25T01:09:55;8.00;;;1.30;;
66607;SDS011;53462;39.616;8.824;2023-04-25T01:12:22;6.70;;;1.10;;
66607;SDS011;53462;39.616;8.824;2023-04-25T01:14:49;3.95;;;1.10;;
66607;SDS011;53462;39.616;8.824;2023-04-25T01:17:15;8.07;;;1.65;;
66607;SDS011;53462;39.616;8.824;2023-04-25T01:19:42;5.40;;;1.40;;
66607;SDS011;53462;39.616;8.824;2023-04-25T01:22:09;6.32;;;1.17;;
66607;SDS011;53462;39.616;8.824;2023-04-25T01:24:35;10.77;;;1.70;;
66607;SDS011;53462;39.616;8.824;2023-04-25T01:27:02;5.20;;;1.23;;
66607;SDS011;53462;39.616;8.824;2023-04-25T01:29:30;5.03;;;1.02;;
66607;SDS011;53462;39.616;8.824;2023-04-25T01:31:57;5.40;;;1.30;;
66607;SDS011;53462;39.616;8.824;2023-04-25T01:34:24;4.78;;;1.13;;
66607;SDS011;53462;39.616;8.824;2023-04-25T01:36:51;7.13;;;1.50;;
66607;SDS011;53462;39.616;8.824;2023-04-25T01:39:18;7.38;;;1.40;;
66607;SDS011;53462;39.616;8.824;2023-04-25T01:41:45;6.25;;;1.20;;
66607;SDS011;53462;39.616;8.824;2023-04-25T01:44:12;9.65;;;1.70;;
66607;SDS011;53462;39.616;8.824;2023-04-25T01:46:38;6.30;;;1.42;;
66607;SDS011;53462;39.616;8.824;2023-04-25T01:49:05;6.45;;;1.38;;
66607;SDS011;53462;39.616;8.824;2023-04-25T01:51:31;6.47;;;1.40;;
66607;SDS011;53462;39.616;8.824;2023-04-25T01:53:58;6.63;;;1.35;;
66607;SDS011;53462;39.616;8.824;2023-04-25T01:56:24;8.35;;;1.20;;
66607;SDS011;53462;39.616;8.824;2023-04-25T01:58:55;7.43;;;1.60;;
66607;SDS011;53462;39.616;8.824;2023-04-25T02:01:36;5.25;;;1.50;;
66607;SDS011;53462;39.616;8.824;2023-04-25T02:04:19;6.07;;;1.20;;
66607;SDS011;53462;39.616;8.824;2023-04-25T02:06:45;7.15;;;1.50;;
66607;SDS011;53462;39.616;8.824;2023-04-25T02:09:11;6.10;;;1.40;;
66607;SDS011;53462;39.616;8.824;2023-04-25T02:11:43;8.35;;;1.30;;
66607;SDS011;53462;39.616;8.824;2023-04-25T02:14:32;4.28;;;1.20;;
66607;SDS011;53462;39.616;8.824;2023-04-25T02:17:03;3.78;;;1.05;;
66607;SDS011;53462;39.616;8.824;2023-04-25T02:19:31;5.80;;;1.30;;
66607;SDS011;53462;39.616;8.824;2023-04-25T02:21:56;9.43;;;1.83;;
66607;SDS011;53462;39.616;8.824;2023-04-25T02:24:23;10.45;;;1.40;;
66607;SDS011;53462;39.616;8.824;2023-04-25T02:26:49;5.55;;;1.27;;
66607;SDS011;53462;39.616;8.824;2023-04-25T02:29:15;8.30;;;1.50;;
66607;SDS011;53462;39.616;8.824;2023-04-25T02:31:42;6.63;;;1.58;;
66607;SDS011;53462;39.616;8.824;2023-04-25T02:34:08;10.05;;;1.30;;
66607;SDS011;53462;39.616;8.824;2023-04-25T02:36:36;9.95;;;1.52;;
66607;SDS011;53462;39.616;8.824;2023-04-25T02:39:02;6.50;;;1.30;;
66607;SDS011;53462;39.616;8.824;2023-04-25T02:41:28;6.25;;;1.10;;
66607;SDS011;53462;39.616;8.824;2023-04-25T02:43:54;4.82;;;1.10;;
66607;SDS011;53462;39.616;8.824;2023-04-25T02:46:20;5.60;;;1.20;;
66607;SDS011;53462;39.616;8.824;2023-04-25T02:48:46;6.45;;;1.45;;
66607;SDS011;53462;39.616;8.824;2023-04-25T02:51:12;8.38;;;1.20;;
66607;SDS011;53462;39.616;8.824;2023-04-25T02:53:39;4.07;;;1.10;;
66607;SDS011;53462;39.616;8.824;2023-04-25T02:56:05;5.65;;;1.27;;
66607;SDS011;53462;39.616;8.824;2023-04-25T02:58:31;5.03;;;1.20;;
66607;SDS011;53462;39.616;8.824;2023-04-25T03:00:57;6.88;;;1.40;;
66607;SDS011;53462;39.616;8.824;2023-04-25T03:03:23;5.60;;;1.40;;
66607;SDS011;53462;39.616;8.824;2023-04-25T03:05:50;7.90;;;1.50;;
66607;SDS011;53462;39.616;8.824;2023-04-25T03:08:21;4.28;;;1.38;;
66607;SDS011;53462;39.616;8.824;2023-04-25T03:10:48;4.53;;;1.20;;
66607;SDS011;53462;39.616;8.824;2023-04-25T03:13:16;4.47;;;1.25;;
66607;SDS011;53462;39.616;8.824;2023-04-25T03:15:43;8.27;;;1.42;;
66607;SDS011;53462;39.616;8.824;2023-04-25T03:18:09;4.07;;;1.50;;
66607;SDS011;53462;39.616;8.824;2023-04-25T03:20:35;5.95;;;1.05;;
66607;SDS011;53462;39.616;8.824;2023-04-25T03:23:02;7.30;;;1.60;;
66607;SDS011;53462;39.616;8.824;2023-04-25T03:25:29;6.93;;;1.30;;
66607;SDS011;53462;39.616;8.824;2023-04-25T03:27:55;5.70;;;1.17;;
66607;SDS011;53462;39.616;8.824;2023-04-25T03:30:21;7.15;;;1.40;;
66607;SDS011;53462;39.616;8.824;2023-04-25T03:32:47;5.75;;;1.75;;
66607;SDS011;53462;39.616;8.824;2023-04-25T03:35:16;4.95;;;1.23;;
66607;SDS011;53462;39.616;8.824;2023-04-25T03:37:42;7.57;;;1.48;;
66607;SDS011;53462;39.616;8.824;2023-04-25T03:40:13;5.10;;;1.45;;
66607;SDS011;53462;39.616;8.824;2023-04-25T03:43:04;4.22;;;1.08;;
66607;SDS011;53462;39.616;8.824;2023-04-25T03:45:30;3.63;;;0.93;;
66607;SDS011;53462;39.616;8.824;2023-04-25T03:47:57;6.07;;;1.00;;
66607;SDS011;53462;39.616;8.824;2023-04-25T03:50:23;5.75;;;1.20;;
66607;SDS011;53462;39.616;8.824;2023-04-25T03:52:49;8.68;;;1.27;;
66607;SDS011;53462;39.616;8.824;2023-04-25T03:55:15;4.63;;;1.08;;
66607;SDS011;53462;39.616;8.824;2023-04-25T03:57:41;6.35;;;1.60;;
66607;SDS011;53462;39.616;8.824;2023-04-25T04:00:07;4.60;;;1.17;;
66607;SDS011;53462;39.616;8.824;2023-04-25T04:02:38;6.10;;;1.15;;
66607;SDS011;53462;39.616;8.824;2023-04-25T04:05:05;8.75;;;1.27;;
66607;SDS011;53462;39.616;8.824;2023-04-25T04:07:34;6.47;;;1.30;;
66607;SDS011;53462;39.616;8.824;2023-04-25T04:10:06;7.68;;;1.20;;
66607;SDS011;53462;39.616;8.824;2023-04-25T04:12:36;9.77;;;1.42;;
66607;SDS011;53462;39.616;8.824;2023-04-25T04:15:03;11.98;;;1.27;;
66607;SDS011;53462;39.616;8.824;2023-04-25T04:17:29;7.18;;;1.52;;
66607;SDS011;53462;39.616;8.824;2023-04-25T04:19:56;4.25;;;1.00;;
66607;SDS011;53462;39.616;8.824;2023-04-25T04:22:22;5.13;;;1.20;;
66607;SDS011;53462;39.616;8.824;2023-04-25T04:24:51;5.70;;;1.27;;
66607;SDS011;53462;39.616;8.824;2023-04-25T04:27:22;4.70;;;1.17;;
66607;SDS011;53462;39.616;8.824;2023-04-25T04:30:07;5.20;;;1.10;;
66607;SDS011;53462;39.616;8.824;2023-04-25T04:32:38;5.10;;;1.20;;
66607;SDS011;53462;39.616;8.824;2023-04-25T04:35:04;7.28;;;1.13;;
66607;SDS011;53462;39.616;8.824;2023-04-25T04:37:31;5.68;;;1.10;;
66607;SDS011;53462;39.616;8.824;2023-04-25T04:39:59;8.05;;;1.50;;
66607;SDS011;53462;39.616;8.824;2023-04-25T04:42:44;13.02;;;2.20;;
66607;SDS011;53462;39.616;8.824;2023-04-25T04:45:22;10.90;;;2.55;;
66607;SDS011;53462;39.616;8.824;2023-04-25T04:48:11;8.85;;;1.80;;
66607;SDS011;53462;39.616;8.824;2023-04-25T04:50:55;4.35;;;1.45;;
66607;SDS011;53462;39.616;8.824;2023-04-25T04:53:41;4.60;;;1.55;;
66607;SDS011;53462;39.616;8.824;2023-04-25T04:56:25;7.68;;;1.50;;
66607;SDS011;53462;39.616;8.824;2023-04-25T04:58:57;7.53;;;1.83;;
66607;SDS011;53462;39.616;8.824;2023-04-25T05:01:42;5.03;;;1.58;;
66607;SDS011;53462;39.616;8.824;2023-04-25T05:04:34;6.22;;;1.50;;
66607;SDS011;53462;39.616;8.824;2023-04-25T05:07:20;5.90;;;1.55;;
66607;SDS011;53462;39.616;8.824;2023-04-25T05:10:01;3.78;;;1.45;;
66607;SDS011;53462;39.616;8.824;2023-04-25T05:12:51;5.32;;;1.70;;
66607;SDS011;53462;39.616;8.824;2023-04-25T05:15:22;4.05;;;1.73;;
66607;SDS011;53462;39.616;8.824;2023-04-25T05:18:07;7.45;;;2.35;;
66607;SDS011;53462;39.616;8.824;2023-04-25T05:20:58;7.90;;;1.83;;
66607;SDS011;53462;39.616;8.824;2023-04-25T05:23:40;7.78;;;1.20;;
66607;SDS011;53462;39.616;8.824;2023-04-25T05:26:30;7.50;;;1.55;;
66607;SDS011;53462;39.616;8.824;2023-04-25T05:29:06;4.63;;;1.30;;
66607;SDS011;53462;39.616;8.824;2023-04-25T05:31:50;4.55;;;1.25;;
66607;SDS011;53462;39.616;8.824;2023-04-25T05:34:17;4.07;;;1.15;;
66607;SDS011;53462;39.616;8.824;2023-04-25T05:36:50;6.50;;;1.20;;
66607;SDS011;53462;39.616;8.824;2023-04-25T05:39:16;7.53;;;2.60;;
66607;SDS011;53462;39.616;8.824;2023-04-25T05:42:01;80.82;;;42.13;;
66607;SDS011;53462;39.616;8.824;2023-04-25T05:44:47;72.57;;;38.58;;
66607;SDS011;53462;39.616;8.824;2023-04-25T05:47:29;30.48;;;12.68;;
66607;SDS011;53462;39.616;8.824;2023-04-25T05:50:21;14.60;;;6.60;;
66607;SDS011;53462;39.616;8.824;2023-04-25T05:53:11;8.80;;;3.28;;
66607;SDS011;53462;39.616;8.824;2023-04-25T05:55:41;8.57;;;3.58;;
66607;SDS011;53462;39.616;8.824;2023-04-25T05:58:26;7.10;;;2.42;;
66607;SDS011;53462;39.616;8.824;2023-04-25T06:00:53;10.90;;;2.70;;
66607;SDS011;53462;39.616;8.824;2023-04-25T06:03:19;6.03;;;2.63;;
66607;SDS011;53462;39.616;8.824;2023-04-25T06:05:46;10.45;;;2.38;;
66607;SDS011;53462;39.616;8.824;2023-04-25T06:08:12;11.85;;;2.20;;
66607;SDS011;53462;39.616;8.824;2023-04-25T06:10:38;6.80;;;2.20;;
66607;SDS011;53462;39.616;8.824;2023-04-25T06:13:04;6.97;;;2.17;;
66607;SDS011;53462;39.616;8.824;2023-04-25T06:15:33;3.88;;;1.63;;
66607;SDS011;53462;39.616;8.824;2023-04-25T06:17:59;7.13;;;2.08;;
66607;SDS011;53462;39.616;8.824;2023-04-25T06:20:26;6.65;;;2.22;;
66607;SDS011;53462;39.616;8.824;2023-04-25T06:22:54;14.40;;;3.97;;
66607;SDS011;53462;39.616;8.824;2023-04-25T06:25:27;11.38;;;5.00;;
66607;SDS011;53462;39.616;8.824;2023-04-25T06:27:54;9.63;;;4.45;;
66607;SDS011;53462;39.616;8.824;2023-04-25T06:30:20;12.75;;;3.75;;
66607;SDS011;53462;39.616;8.824;2023-04-25T06:32:53;8.95;;;3.83;;
66607;SDS011;53462;39.616;8.824;2023-04-25T06:35:19;5.13;;;1.90;;
66607;SDS011;53462;39.616;8.824;2023-04-25T06:37:45;7.30;;;1.60;;
66607;SDS011;53462;39.616;8.824;2023-04-25T06:40:11;12.90;;;3.92;;
66607;SDS011;53462;39.616;8.824;2023-04-25T06:42:37;6.13;;;1.73;;
66607;SDS011;53462;39.616;8.824;2023-04-25T06:45:23;8.27;;;2.05;;
66607;SDS011;53462;39.616;8.824;2023-04-25T06:47:52;8.35;;;2.53;;
66607;SDS011;53462;39.616;8.824;2023-04-25T06:50:18;7.68;;;2.53;;
66607;SDS011;53462;39.616;8.824;2023-04-25T06:52:44;8.70;;;3.50;;
66607;SDS011;53462;39.616;8.824;2023-04-25T06:55:10;7.75;;;2.80;;
66607;SDS011;53462;39.616;8.824;2023-04-25T06:57:52;6.55;;;2.60;;
66607;SDS011;53462;39.616;8.824;2023-04-25T07:00:47;5.85;;;2.55;;
66607;SDS011;53462;39.616;8.824;2023-04-25T07:03:13;4.60;;;2.00;;
66607;SDS011;53462;39.616;8.824;2023-04-25T07:05:39;8.45;;;2.55;;
66607;SDS011;53462;39.616;8.824;2023-04-25T07:08:05;4.60;;;1.80;;
66607;SDS011;53462;39.616;8.824;2023-04-25T07:10:31;10.77;;;1.50;;
66607;SDS011;53462;39.616;8.824;2023-04-25T07:12:57;5.05;;;1.13;;
66607;SDS011;53462;39.616;8.824;2023-04-25T07:15:23;6.57;;;1.40;;
66607;SDS011;53462;39.616;8.824;2023-04-25T07:17:49;5.07;;;1.25;;
66607;SDS011;53462;39.616;8.824;2023-04-25T07:20:15;7.30;;;1.70;;
66607;SDS011;53462;39.616;8.824;2023-04-25T07:22:42;5.47;;;1.50;;
66607;SDS011;53462;39.616;8.824;2023-04-25T07:25:08;5.30;;;1.52;;
66607;SDS011;53462;39.616;8.824;2023-04-25T07:27:34;5.70;;;1.55;;
66607;SDS011;53462;39.616;8.824;2023-04-25T07:30:07;5.53;;;1.63;;
66607;SDS011;53462;39.616;8.824;2023-04-25T07:32:33;5.18;;;1.20;;
66607;SDS011;53462;39.616;8.824;2023-04-25T07:34:59;4.60;;;1.20;;
66607;SDS011;53462;39.616;8.824;2023-04-25T07:37:27;3.58;;;1.38;;
66607;SDS011;53462;39.616;8.824;2023-04-25T07:40:08;2.78;;;1.10;;
66607;SDS011;53462;39.616;8.824;2023-04-25T07:42:36;4.03;;;1.02;;
66607;SDS011;53462;39.616;8.824;2023-04-25T07:45:04;3.83;;;1.02;;
66607;SDS011;53462;39.616;8.824;2023-04-25T07:47:30;5.68;;;1.10;;
66607;SDS011;53462;39.616;8.824;2023-04-25T07:49:56;2.35;;;0.90;;
66607;SDS011;53462;39.616;8.824;2023-04-25T07:52:23;2.65;;;0.70;;
66607;SDS011;53462;39.616;8.824;2023-04-25T07:54:55;2.78;;;1.08;;
66607;SDS011;53462;39.616;8.824;2023-04-25T07:57:32;2.47;;;0.70;;
66607;SDS011;53462;39.616;8.824;2023-04-25T07:59:58;3.35;;;0.80;;
66607;SDS011;53462;39.616;8.824;2023-04-25T08:02:27;2.83;;;1.00;;
66607;SDS011;53462;39.616;8.824;2023-04-25T08:04:54;5.82;;;0.80;;
66607;SDS011;53462;39.616;8.824;2023-04-25T08:07:20;4.53;;;0.90;;
66607;SDS011;53462;39.616;8.824;2023-04-25T08:09:50;2.72;;;1.02;;
66607;SDS011;53462;39.616;8.824;2023-04-25T08:12:31;3.88;;;0.80;;
66607;SDS011;53462;39.616;8.824;2023-04-25T08:14:57;3.33;;;1.45;;
66607;SDS011;53462;39.616;8.824;2023-04-25T08:17:27;3.72;;;0.90;;
66607;SDS011;53462;39.616;8.824;2023-04-25T08:19:53;3.33;;;0.80;;
66607;SDS011;53462;39.616;8.824;2023-04-25T08:22:25;3.10;;;1.00;;
66607;SDS011;53462;39.616;8.824;2023-04-25T08:25:00;3.30;;;0.80;;
66607;SDS011;53462;39.616;8.824;2023-04-25T08:27:26;2.03;;;0.70;;
66607;SDS011;53462;39.616;8.824;2023-04-25T08:29:52;2.42;;;0.70;;
66607;SDS011;53462;39.616;8.824;2023-04-25T08:32:19;3.03;;;0.90;;
66607;SDS011;53462;39.616;8.824;2023-04-25T08:35:01;5.60;;;1.13;;
66607;SDS011;53462;39.616;8.824;2023-04-25T08:37:27;4.10;;;0.90;;
66607;SDS011;53462;39.616;8.824;2023-04-25T08:40:01;1.63;;;0.82;;
66607;SDS011;53462;39.616;8.824;2023-04-25T08:42:58;2.53;;;1.00;;
66607;SDS011;53462;39.616;8.824;2023-04-25T08:45:28;5.10;;;1.02;;
66607;SDS011;53462;39.616;8.824;2023-04-25T08:47:57;2.17;;;0.98;;
66607;SDS011;53462;39.616;8.824;2023-04-25T08:50:25;4.28;;;0.80;;
66607;SDS011;53462;39.616;8.824;2023-04-25T08:52:53;7.70;;;1.05;;
66607;SDS011;53462;39.616;8.824;2023-04-25T08:55:20;2.38;;;0.90;;
66607;SDS011;53462;39.616;8.824;2023-04-25T08:57:51;5.72;;;1.33;;
66607;SDS011;53462;39.616;8.824;2023-04-25T09:00:20;4.05;;;1.10;;
66607;SDS011;53462;39.616;8.824;2023-04-25T09:02:46;4.45;;;0.95;;
66607;SDS011;53462;39.616;8.824;2023-04-25T09:05:13;2.05;;;0.90;;
66607;SDS011;53462;39.616;8.824;2023-04-25T09:07:39;2.42;;;0.80;;
66607;SDS011;53462;39.616;8.824;2023-04-25T09:10:06;3.92;;;1.00;;
66607;SDS011;53462;39.616;8.824;2023-04-25T09:12:35;2.90;;;1.00;;
66607;SDS011;53462;39.616;8.824;2023-04-25T09:15:08;6.00;;;1.05;;
66607;SDS011;53462;39.616;8.824;2023-04-25T09:17:56;4.03;;;1.00;;
66607;SDS011;53462;39.616;8.824;2023-04-25T09:20:25;3.15;;;1.17;;
66607;SDS011;53462;39.616;8.824;2023-04-25T09:23:01;2.97;;;1.15;;
66607;SDS011;53462;39.616;8.824;2023-04-25T09:25:37;4.13;;;1.03;;
66607;SDS011;53462;39.616;8.824;2023-04-25T09:28:10;6.53;;;2.05;;
66607;SDS011;53462;39.616;8.824;2023-04-25T09:30:37;3.15;;;1.20;;
66607;SDS011;53462;39.616;8.824;2023-04-25T09:33:13;5.07;;;2.60;;
66607;SDS011;53462;39.616;8.824;2023-04-25T09:35:43;6.10;;;1.33;;
66607;SDS011;53462;39.616;8.824;2023-04-25T09:38:23;5.00;;;1.00;;
66607;SDS011;53462;39.616;8.824;2023-04-25T09:41:22;2.40;;;1.23;;
66607;SDS011;53462;39.616;8.824;2023-04-25T09:43:49;2.67;;;0.90;;
66607;SDS011;53462;39.616;8.824;2023-04-25T09:46:16;3.53;;;0.90;;
66607;SDS011;53462;39.616;8.824;2023-04-25T09:48:49;2.88;;;1.20;;
66607;SDS011;53462;39.616;8.824;2023-04-25T09:51:20;4.78;;;1.10;;
66607;SDS011;53462;39.616;8.824;2023-04-25T09:53:51;3.08;;;0.90;;
66607;SDS011;53462;39.616;8.824;2023-04-25T09:56:28;3.25;;;1.08;;
66607;SDS011;53462;39.616;8.824;2023-04-25T09:58:59;3.63;;;0.90;;
66607;SDS011;53462;39.616;8.824;2023-04-25T10:01:25;3.17;;;0.80;;
66607;SDS011;53462;39.616;8.824;2023-04-25T10:04:03;3.28;;;1.00;;
66607;SDS011;53462;39.616;8.824;2023-04-25T10:06:45;2.38;;;0.90;;
66607;SDS011;53462;39.616;8.824;2023-04-25T10:09:15;2.67;;;1.00;;
66607;SDS011;53462;39.616;8.824;2023-04-25T10:11:43;1.98;;;0.90;;
66607;SDS011;53462;39.616;8.824;2023-04-25T10:14:12;3.33;;;1.00;;
66607;SDS011;53462;39.616;8.824;2023-04-25T10:16:38;2.42;;;0.80;;
66607;SDS011;53462;39.616;8.824;2023-04-25T10:19:07;1.50;;;0.90;;
66607;SDS011;53462;39.616;8.824;2023-04-25T10:21:33;3.42;;;1.10;;
66607;SDS011;53462;39.616;8.824;2023-04-25T10:24:01;2.10;;;0.85;;
66607;SDS011;53462;39.616;8.824;2023-04-25T10:26:28;3.85;;;1.00;;
66607;SDS011;53462;39.616;8.824;2023-04-25T10:28:55;2.00;;;0.80;;
66607;SDS011;53462;39.616;8.824;2023-04-25T10:31:23;5.07;;;1.00;;
66607;SDS011;53462;39.616;8.824;2023-04-25T10:33:49;4.25;;;1.40;;
66607;SDS011;53462;39.616;8.824;2023-04-25T10:36:18;3.33;;;0.90;;
66607;SDS011;53462;39.616;8.824;2023-04-25T10:38:47;1.88;;;0.90;;
66607;SDS011;53462;39.616;8.824;2023-04-25T10:41:17;2.03;;;1.00;;
66607;SDS011;53462;39.616;8.824;2023-04-25T10:43:48;2.55;;;0.90;;
66607;SDS011;53462;39.616;8.824;2023-04-25T10:46:25;3.15;;;0.80;;
66607;SDS011;53462;39.616;8.824;2023-04-25T10:48:53;2.80;;;0.90;;
66607;SDS011;53462;39.616;8.824;2023-04-25T10:59:10;1.70;;;0.70;;
66607;SDS011;53462;39.616;8.824;2023-04-25T11:01:38;2.63;;;0.90;;
66607;SDS011;53462;39.616;8.824;2023-04-25T11:04:25;1.70;;;0.80;;
66607;SDS011;53462;39.616;8.824;2023-04-25T11:09:29;2.88;;;0.95;;
66607;SDS011;53462;39.616;8.824;2023-04-25T11:11:56;2.33;;;0.95;;
66607;SDS011;53462;39.616;8.824;2023-04-25T11:14:23;3.28;;;1.02;;
66607;SDS011;53462;39.616;8.824;2023-04-25T11:16:53;2.15;;;0.80;;
66607;SDS011;53462;39.616;8.824;2023-04-25T11:19:23;2.58;;;1.00;;
66607;SDS011;53462;39.616;8.824;2023-04-25T11:21:50;2.53;;;0.73;;
66607;SDS011;53462;39.616;8.824;2023-04-25T11:24:16;4.90;;;0.80;;
66607;SDS011;53462;39.616;8.824;2023-04-25T11:26:43;2.17;;;0.90;;
66607;SDS011;53462;39.616;8.824;2023-04-25T11:29:12;2.67;;;0.80;;
66607;SDS011;53462;39.616;8.824;2023-04-25T11:31:39;2.65;;;1.00;;
66607;SDS011;53462;39.616;8.824;2023-04-25T11:34:10;2.60;;;0.90;;
66607;SDS011;53462;39.616;8.824;2023-04-25T11:36:37;3.42;;;1.00;;
66607;SDS011;53462;39.616;8.824;2023-04-25T11:39:04;4.38;;;1.08;;
66607;SDS011;53462;39.616;8.824;2023-04-25T11:41:31;4.47;;;1.73;;
66607;SDS011;53462;39.616;8.824;2023-04-25T11:43:57;2.72;;;0.90;;
66607;SDS011;53462;39.616;8.824;2023-04-25T11:46:23;5.43;;;1.10;;
66607;SDS011;53462;39.616;8.824;2023-04-25T11:48:48;3.22;;;1.00;;
66607;SDS011;53462;39.616;8.824;2023-04-25T11:51:15;2.50;;;0.90;;
66607;SDS011;53462;39.616;8.824;2023-04-25T11:53:42;4.40;;;1.00;;
66607;SDS011;53462;39.616;8.824;2023-04-25T11:56:10;3.15;;;1.13;;
66607;SDS011;53462;39.616;8.824;2023-04-25T12:01:29;4.03;;;0.98;;
66607;SDS011;53462;39.616;8.824;2023-04-25T12:03:57;2.13;;;0.85;;
66607;SDS011;53462;39.616;8.824;2023-04-25T12:06:30;3.45;;;1.00;;
66607;SDS011;53462;39.616;8.824;2023-04-25T12:09:14;2.75;;;0.90;;
66607;SDS011;53462;39.616;8.824;2023-04-25T12:11:52;4.57;;;0.93;;
66607;SDS011;53462;39.616;8.824;2023-04-25T12:14:41;4.07;;;1.02;;
66607;SDS011;53462;39.616;8.824;2023-04-25T12:17:12;2.03;;;0.93;;
66607;SDS011;53462;39.616;8.824;2023-04-25T12:19:38;1.67;;;0.75;;
66607;SDS011;53462;39.616;8.824;2023-04-25T12:22:18;3.25;;;1.10;;
66607;SDS011;53462;39.616;8.824;2023-04-25T12:24:49;4.75;;;0.80;;
66607;SDS011;53462;39.616;8.824;2023-04-25T12:27:15;5.88;;;1.10;;
66607;SDS011;53462;39.616;8.824;2023-04-25T12:29:53;3.15;;;0.80;;
66607;SDS011;53462;39.616;8.824;2023-04-25T12:32:20;4.97;;;1.02;;
66607;SDS011;53462;39.616;8.824;2023-04-25T12:34:46;3.38;;;0.90;;
66607;SDS011;53462;39.616;8.824;2023-04-25T12:37:12;4.10;;;0.90;;
66607;SDS011;53462;39.616;8.824;2023-04-25T12:39:39;4.32;;;1.13;;
66607;SDS011;53462;39.616;8.824;2023-04-25T12:42:05;4.90;;;1.10;;
66607;SDS011;53462;39.616;8.824;2023-04-25T12:44:33;3.90;;;1.00;;
66607;SDS011;53462;39.616;8.824;2023-04-25T12:47:00;5.03;;;0.90;;
66607;SDS011;53462;39.616;8.824;2023-04-25T12:49:26;2.15;;;0.70;;
66607;SDS011;53462;39.616;8.824;2023-04-25T12:51:51;3.65;;;0.85;;
66607;SDS011;53462;39.616;8.824;2023-04-25T12:54:17;2.53;;;0.85;;
66607;SDS011;53462;39.616;8.824;2023-04-25T12:56:43;2.83;;;0.70;;
66607;SDS011;53462;39.616;8.824;2023-04-25T12:59:09;3.78;;;0.80;;
66607;SDS011;53462;39.616;8.824;2023-04-25T13:01:36;3.40;;;0.85;;
66607;SDS011;53462;39.616;8.824;2023-04-25T13:04:02;2.63;;;0.70;;
66607;SDS011;53462;39.616;8.824;2023-04-25T13:06:28;4.63;;;1.10;;
66607;SDS011;53462;39.616;8.824;2023-04-25T13:08:56;4.03;;;0.80;;
66607;SDS011;53462;39.616;8.824;2023-04-25T13:11:21;3.72;;;0.70;;
66607;SDS011;53462;39.616;8.824;2023-04-25T13:13:47;3.13;;;1.00;;
66607;SDS011;53462;39.616;8.824;2023-04-25T13:16:13;4.55;;;2.45;;
66607;SDS011;53462;39.616;8.824;2023-04-25T13:18:39;2.72;;;1.60;;
66607;SDS011;53462;39.616;8.824;2023-04-25T13:21:06;2.50;;;1.70;;
66607;SDS011;53462;39.616;8.824;2023-04-25T13:23:32;3.08;;;0.90;;
66607;SDS011;53462;39.616;8.824;2023-04-25T13:25:58;3.72;;;1.02;;
66607;SDS011;53462;39.616;8.824;2023-04-25T13:28:25;3.35;;;1.17;;
66607;SDS011;53462;39.616;8.824;2023-04-25T13:30:51;5.50;;;0.95;;
66607;SDS011;53462;39.616;8.824;2023-04-25T13:33:18;2.40;;;0.68;;
66607;SDS011;53462;39.616;8.824;2023-04-25T13:35:45;4.55;;;1.20;;
66607;SDS011;53462;39.616;8.824;2023-04-25T13:38:19;1.95;;;0.73;;
66607;SDS011;53462;39.616;8.824;2023-04-25T13:40:46;6.50;;;1.30;;
66607;SDS011;53462;39.616;8.824;2023-04-25T13:43:12;1.42;;;0.80;;
66607;SDS011;53462;39.616;8.824;2023-04-25T13:45:38;4.22;;;0.80;;
66607;SDS011;53462;39.616;8.824;2023-04-25T13:48:04;3.20;;;0.90;;
66607;SDS011;53462;39.616;8.824;2023-04-25T13:50:31;4.43;;;1.00;;
66607;SDS011;53462;39.616;8.824;2023-04-25T13:52:57;4.50;;;0.90;;
66607;SDS011;53462;39.616;8.824;2023-04-25T13:55:23;2.85;;;0.80;;
66607;SDS011;53462;39.616;8.824;2023-04-25T13:57:49;2.38;;;0.80;;
66607;SDS011;53462;39.616;8.824;2023-04-25T14:00:15;4.93;;;1.10;;
66607;SDS011;53462;39.616;8.824;2023-04-25T14:02:41;2.63;;;1.00;;
66607;SDS011;53462;39.616;8.824;2023-04-25T14:05:07;5.22;;;1.00;;
66607;SDS011;53462;39.616;8.824;2023-04-25T14:07:34;4.22;;;1.10;;
66607;SDS011;53462;39.616;8.824;2023-04-25T14:10:01;5.97;;;1.30;;
66607;SDS011;53462;39.616;8.824;2023-04-25T14:12:27;3.83;;;0.95;;
66607;SDS011;53462;39.616;8.824;2023-04-25T14:14:53;3.28;;;0.98;;
66607;SDS011;53462;39.616;8.824;2023-04-25T14:17:19;2.25;;;0.98;;
66607;SDS011;53462;39.616;8.824;2023-04-25T14:19:45;4.57;;;1.17;;
66607;SDS011;53462;39.616;8.824;2023-04-25T14:22:13;5.80;;;1.10;;
66607;SDS011;53462;39.616;8.824;2023-04-25T14:24:43;3.83;;;1.15;;
66607;SDS011;53462;39.616;8.824;2023-04-25T14:27:08;4.68;;;1.25;;
66607;SDS011;53462;39.616;8.824;2023-04-25T14:29:34;4.03;;;1.25;;
66607;SDS011;53462;39.616;8.824;2023-04-25T14:32:00;6.20;;;1.30;;
66607;SDS011;53462;39.616;8.824;2023-04-25T14:34:27;3.38;;;1.30;;
66607;SDS011;53462;39.616;8.824;2023-04-25T14:36:53;4.00;;;1.25;;
66607;SDS011;53462;39.616;8.824;2023-04-25T14:39:19;3.65;;;1.13;;
66607;SDS011;53462;39.616;8.824;2023-04-25T14:41:45;4.43;;;1.15;;
66607;SDS011;53462;39.616;8.824;2023-04-25T14:44:11;4.20;;;1.40;;
66607;SDS011;53462;39.616;8.824;2023-04-25T14:46:37;4.47;;;1.20;;
66607;SDS011;53462;39.616;8.824;2023-04-25T14:49:03;5.00;;;1.35;;
66607;SDS011;53462;39.616;8.824;2023-04-25T14:51:30;4.20;;;1.60;;
66607;SDS011;53462;39.616;8.824;2023-04-25T14:53:56;5.90;;;1.52;;
66607;SDS011;53462;39.616;8.824;2023-04-25T14:56:22;5.05;;;1.38;;
66607;SDS011;53462;39.616;8.824;2023-04-25T14:58:48;3.15;;;1.02;;
66607;SDS011;53462;39.616;8.824;2023-04-25T15:01:14;2.95;;;1.20;;
66607;SDS011;53462;39.616;8.824;2023-04-25T15:03:40;3.03;;;1.20;;
66607;SDS011;53462;39.616;8.824;2023-04-25T15:06:06;3.53;;;1.20;;
66607;SDS011;53462;39.616;8.824;2023-04-25T15:08:33;3.58;;;1.13;;
66607;SDS011;53462;39.616;8.824;2023-04-25T15:10:59;4.60;;;1.10;;
66607;SDS011;53462;39.616;8.824;2023-04-25T15:13:25;5.38;;;1.20;;
66607;SDS011;53462;39.616;8.824;2023-04-25T15:15:52;8.43;;;1.65;;